sensor_id;sensor_type;location;lat;lon;timestamp;P1;durP1;ratioP1;P2;durP2;ratioP2
65871;SDS011;52653;50.080;21.992;2022-07-21T00:01:24;12.20;;;8.70;;
65871;SDS011;52653;50.080;21.992;2022-07-21T00:04:16;15.40;;;9.50;;
65871;SDS011;52653;50.080;21.992;2022-07-21T00:07:10;15.10;;;8.90;;
65871;SDS011;52653;50.080;21.992;2022-07-21T00:10:02;15.20;;;9.30;;
65871;SDS011;52653;50.080;21.992;2022-07-21T00:12:56;15.70;;;9.40;;
65871;SDS011;52653;50.080;21.992;2022-07-21T00:15:51;14.90;;;9.40;;
65871;SDS011;52653;50.080;21.992;2022-07-21T00:18:44;15.00;;;8.70;;
65871;SDS011;52653;50.080;21.992;2022-07-21T00:21:36;12.70;;;8.90;;
65871;SDS011;52653;50.080;21.992;2022-07-21T00:24:20;16.60;;;10.10;;
65871;SDS011;52653;50.080;21.992;2022-07-21T00:27:14;15.20;;;9.00;;
65871;SDS011;52653;50.080;21.992;2022-07-21T00:30:08;14.40;;;9.20;;
65871;SDS011;52653;50.080;21.992;2022-07-21T00:33:04;13.70;;;8.70;;
65871;SDS011;52653;50.080;21.992;2022-07-21T00:35:45;14.80;;;9.70;;
65871;SDS011;52653;50.080;21.992;2022-07-21T00:38:38;14.90;;;9.40;;
65871;SDS011;52653;50.080;21.992;2022-07-21T00:41:34;14.00;;;10.20;;
65871;SDS011;52653;50.080;21.992;2022-07-21T00:44:26;15.10;;;9.70;;
65871;SDS011;52653;50.080;21.992;2022-07-21T00:47:20;15.10;;;10.10;;
65871;SDS011;52653;50.080;21.992;2022-07-21T00:50:13;15.30;;;9.40;;
65871;SDS011;52653;50.080;21.992;2022-07-21T00:53:10;16.50;;;9.10;;
65871;SDS011;52653;50.080;21.992;2022-07-21T00:56:03;16.60;;;9.70;;
65871;SDS011;52653;50.080;21.992;2022-07-21T00:58:56;14.20;;;9.30;;
65871;SDS011;52653;50.080;21.992;2022-07-21T01:01:43;12.70;;;9.30;;
65871;SDS011;52653;50.080;21.992;2022-07-21T01:04:27;12.20;;;9.10;;
65871;SDS011;52653;50.080;21.992;2022-07-21T01:07:20;14.20;;;9.60;;
65871;SDS011;52653;50.080;21.992;2022-07-21T01:10:13;13.70;;;9.10;;
65871;SDS011;52653;50.080;21.992;2022-07-21T01:13:07;16.90;;;10.20;;
65871;SDS011;52653;50.080;21.992;2022-07-21T01:16:00;15.20;;;9.40;;
65871;SDS011;52653;50.080;21.992;2022-07-21T01:18:52;13.80;;;9.80;;
65871;SDS011;52653;50.080;21.992;2022-07-21T01:21:40;15.50;;;10.00;;
65871;SDS011;52653;50.080;21.992;2022-07-21T01:24:35;12.40;;;8.70;;
65871;SDS011;52653;50.080;21.992;2022-07-21T01:27:28;13.50;;;9.20;;
65871;SDS011;52653;50.080;21.992;2022-07-21T01:30:21;15.10;;;8.60;;
65871;SDS011;52653;50.080;21.992;2022-07-21T01:33:13;13.00;;;8.50;;
65871;SDS011;52653;50.080;21.992;2022-07-21T01:36:06;13.20;;;9.40;;
65871;SDS011;52653;50.080;21.992;2022-07-21T01:38:52;14.50;;;9.70;;
65871;SDS011;52653;50.080;21.992;2022-07-21T01:42:04;12.90;;;9.40;;
65871;SDS011;52653;50.080;21.992;2022-07-21T01:44:59;13.90;;;9.20;;
65871;SDS011;52653;50.080;21.992;2022-07-21T01:47:53;17.00;;;9.90;;
65871;SDS011;52653;50.080;21.992;2022-07-21T01:50:48;12.10;;;8.80;;
65871;SDS011;52653;50.080;21.992;2022-07-21T01:53:41;14.20;;;8.50;;
65871;SDS011;52653;50.080;21.992;2022-07-21T01:56:36;12.00;;;8.80;;
65871;SDS011;52653;50.080;21.992;2022-07-21T01:59:31;12.80;;;8.60;;
65871;SDS011;52653;50.080;21.992;2022-07-21T02:02:23;12.50;;;8.40;;
65871;SDS011;52653;50.080;21.992;2022-07-21T02:05:16;14.20;;;8.60;;
65871;SDS011;52653;50.080;21.992;2022-07-21T02:08:08;10.50;;;7.80;;
65871;SDS011;52653;50.080;21.992;2022-07-21T02:10:53;10.70;;;8.30;;
65871;SDS011;52653;50.080;21.992;2022-07-21T02:13:28;13.40;;;9.30;;
65871;SDS011;52653;50.080;21.992;2022-07-21T02:16:20;15.20;;;9.30;;
65871;SDS011;52653;50.080;21.992;2022-07-21T02:19:06;12.70;;;8.30;;
65871;SDS011;52653;50.080;21.992;2022-07-21T02:21:58;12.90;;;9.30;;
65871;SDS011;52653;50.080;21.992;2022-07-21T02:24:51;11.60;;;8.80;;
65871;SDS011;52653;50.080;21.992;2022-07-21T02:27:43;12.60;;;8.70;;
65871;SDS011;52653;50.080;21.992;2022-07-21T02:30:36;13.40;;;9.10;;
65871;SDS011;52653;50.080;21.992;2022-07-21T02:33:30;14.00;;;9.10;;
65871;SDS011;52653;50.080;21.992;2022-07-21T02:36:24;12.80;;;9.10;;
65871;SDS011;52653;50.080;21.992;2022-07-21T02:39:17;13.70;;;9.40;;
65871;SDS011;52653;50.080;21.992;2022-07-21T02:42:10;12.70;;;9.10;;
65871;SDS011;52653;50.080;21.992;2022-07-21T02:45:03;12.20;;;9.30;;
65871;SDS011;52653;50.080;21.992;2022-07-21T02:47:58;13.30;;;9.70;;
65871;SDS011;52653;50.080;21.992;2022-07-21T02:50:52;12.70;;;8.90;;
65871;SDS011;52653;50.080;21.992;2022-07-21T02:53:38;12.60;;;8.50;;
65871;SDS011;52653;50.080;21.992;2022-07-21T02:56:31;14.00;;;9.30;;
65871;SDS011;52653;50.080;21.992;2022-07-21T02:59:23;13.40;;;9.40;;
65871;SDS011;52653;50.080;21.992;2022-07-21T03:02:16;12.40;;;8.90;;
65871;SDS011;52653;50.080;21.992;2022-07-21T03:04:56;12.90;;;9.00;;
65871;SDS011;52653;50.080;21.992;2022-07-21T03:07:50;12.10;;;8.30;;
65871;SDS011;52653;50.080;21.992;2022-07-21T03:10:43;12.80;;;8.70;;
65871;SDS011;52653;50.080;21.992;2022-07-21T03:13:30;12.00;;;8.60;;
65871;SDS011;52653;50.080;21.992;2022-07-21T03:16:24;16.00;;;10.30;;
65871;SDS011;52653;50.080;21.992;2022-07-21T03:19:18;16.20;;;12.00;;
65871;SDS011;52653;50.080;21.992;2022-07-21T03:22:11;14.00;;;8.90;;
65871;SDS011;52653;50.080;21.992;2022-07-21T03:24:59;11.50;;;9.10;;
65871;SDS011;52653;50.080;21.992;2022-07-21T03:27:52;14.20;;;9.80;;
65871;SDS011;52653;50.080;21.992;2022-07-21T03:30:45;13.70;;;9.60;;
65871;SDS011;52653;50.080;21.992;2022-07-21T03:33:38;11.20;;;9.10;;
65871;SDS011;52653;50.080;21.992;2022-07-21T03:36:31;12.90;;;9.30;;
65871;SDS011;52653;50.080;21.992;2022-07-21T03:39:25;11.10;;;8.30;;
65871;SDS011;52653;50.080;21.992;2022-07-21T03:42:10;13.00;;;9.30;;
65871;SDS011;52653;50.080;21.992;2022-07-21T03:45:06;13.30;;;9.00;;
65871;SDS011;52653;50.080;21.992;2022-07-21T03:48:02;11.50;;;9.60;;
65871;SDS011;52653;50.080;21.992;2022-07-21T03:50:49;11.60;;;8.40;;
65871;SDS011;52653;50.080;21.992;2022-07-21T03:53:42;13.00;;;9.30;;
65871;SDS011;52653;50.080;21.992;2022-07-21T03:56:34;11.50;;;8.50;;
65871;SDS011;52653;50.080;21.992;2022-07-21T03:59:27;12.30;;;8.40;;
65871;SDS011;52653;50.080;21.992;2022-07-21T04:02:19;11.40;;;8.50;;
65871;SDS011;52653;50.080;21.992;2022-07-21T04:05:12;11.50;;;8.70;;
65871;SDS011;52653;50.080;21.992;2022-07-21T04:08:06;12.10;;;8.50;;
65871;SDS011;52653;50.080;21.992;2022-07-21T04:11:01;12.30;;;8.50;;
65871;SDS011;52653;50.080;21.992;2022-07-21T04:13:54;11.80;;;8.10;;
65871;SDS011;52653;50.080;21.992;2022-07-21T04:16:47;11.30;;;8.20;;
65871;SDS011;52653;50.080;21.992;2022-07-21T04:19:41;10.80;;;7.80;;
65871;SDS011;52653;50.080;21.992;2022-07-21T04:22:35;12.10;;;7.90;;
65871;SDS011;52653;50.080;21.992;2022-07-21T04:25:28;10.90;;;7.60;;
65871;SDS011;52653;50.080;21.992;2022-07-21T04:28:01;11.20;;;8.10;;
65871;SDS011;52653;50.080;21.992;2022-07-21T04:30:54;11.60;;;8.70;;
65871;SDS011;52653;50.080;21.992;2022-07-21T04:33:46;12.20;;;8.50;;
65871;SDS011;52653;50.080;21.992;2022-07-21T04:36:40;11.50;;;6.90;;
65871;SDS011;52653;50.080;21.992;2022-07-21T04:39:32;9.80;;;7.40;;
65871;SDS011;52653;50.080;21.992;2022-07-21T04:42:27;10.00;;;7.60;;
65871;SDS011;52653;50.080;21.992;2022-07-21T04:45:22;10.80;;;7.30;;
65871;SDS011;52653;50.080;21.992;2022-07-21T04:48:08;10.20;;;6.90;;
65871;SDS011;52653;50.080;21.992;2022-07-21T04:51:00;10.40;;;7.00;;
65871;SDS011;52653;50.080;21.992;2022-07-21T04:53:54;11.30;;;6.50;;
65871;SDS011;52653;50.080;21.992;2022-07-21T04:56:47;9.30;;;6.50;;
65871;SDS011;52653;50.080;21.992;2022-07-21T04:59:42;10.20;;;7.20;;
65871;SDS011;52653;50.080;21.992;2022-07-21T05:02:34;9.70;;;7.20;;
65871;SDS011;52653;50.080;21.992;2022-07-21T05:05:27;10.80;;;7.00;;
65871;SDS011;52653;50.080;21.992;2022-07-21T05:08:22;11.20;;;7.20;;
65871;SDS011;52653;50.080;21.992;2022-07-21T05:11:16;9.70;;;6.90;;
65871;SDS011;52653;50.080;21.992;2022-07-21T05:14:10;10.80;;;8.20;;
65871;SDS011;52653;50.080;21.992;2022-07-21T05:17:04;12.70;;;7.40;;
65871;SDS011;52653;50.080;21.992;2022-07-21T05:19:58;11.10;;;7.20;;
65871;SDS011;52653;50.080;21.992;2022-07-21T05:22:54;11.70;;;7.70;;
65871;SDS011;52653;50.080;21.992;2022-07-21T05:25:47;9.10;;;7.10;;
65871;SDS011;52653;50.080;21.992;2022-07-21T05:28:24;9.20;;;7.50;;
65871;SDS011;52653;50.080;21.992;2022-07-21T05:31:21;10.20;;;7.00;;
65871;SDS011;52653;50.080;21.992;2022-07-21T05:34:15;10.80;;;7.00;;
65871;SDS011;52653;50.080;21.992;2022-07-21T05:37:11;9.50;;;6.90;;
65871;SDS011;52653;50.080;21.992;2022-07-21T05:40:05;10.50;;;6.60;;
65871;SDS011;52653;50.080;21.992;2022-07-21T05:42:59;9.50;;;6.80;;
65871;SDS011;52653;50.080;21.992;2022-07-21T05:45:51;9.50;;;6.10;;
65871;SDS011;52653;50.080;21.992;2022-07-21T05:48:48;8.50;;;6.60;;
65871;SDS011;52653;50.080;21.992;2022-07-21T05:51:32;7.70;;;6.00;;
65871;SDS011;52653;50.080;21.992;2022-07-21T05:54:24;7.50;;;5.50;;
65871;SDS011;52653;50.080;21.992;2022-07-21T05:57:17;8.90;;;6.10;;
65871;SDS011;52653;50.080;21.992;2022-07-21T06:00:12;8.00;;;6.30;;
65871;SDS011;52653;50.080;21.992;2022-07-21T06:03:06;8.10;;;5.90;;
65871;SDS011;52653;50.080;21.992;2022-07-21T06:06:01;11.50;;;6.20;;
65871;SDS011;52653;50.080;21.992;2022-07-21T06:08:56;10.20;;;6.30;;
65871;SDS011;52653;50.080;21.992;2022-07-21T06:11:39;8.20;;;5.70;;
65871;SDS011;52653;50.080;21.992;2022-07-21T06:14:31;8.00;;;5.60;;
65871;SDS011;52653;50.080;21.992;2022-07-21T06:17:24;9.40;;;5.70;;
65871;SDS011;52653;50.080;21.992;2022-07-21T06:20:22;11.50;;;5.80;;
65871;SDS011;52653;50.080;21.992;2022-07-21T06:23:14;8.00;;;5.00;;
65871;SDS011;52653;50.080;21.992;2022-07-21T06:26:07;10.40;;;4.20;;
65871;SDS011;52653;50.080;21.992;2022-07-21T06:28:59;7.70;;;5.00;;
65871;SDS011;52653;50.080;21.992;2022-07-21T06:31:52;9.90;;;4.70;;
65871;SDS011;52653;50.080;21.992;2022-07-21T06:34:45;8.80;;;4.10;;
65871;SDS011;52653;50.080;21.992;2022-07-21T06:37:31;7.10;;;4.60;;
65871;SDS011;52653;50.080;21.992;2022-07-21T06:40:24;8.50;;;4.40;;
65871;SDS011;52653;50.080;21.992;2022-07-21T06:43:06;5.80;;;4.10;;
65871;SDS011;52653;50.080;21.992;2022-07-21T06:46:17;6.20;;;3.40;;
65871;SDS011;52653;50.080;21.992;2022-07-21T06:49:10;5.90;;;3.30;;
65871;SDS011;52653;50.080;21.992;2022-07-21T06:52:02;5.60;;;3.40;;
65871;SDS011;52653;50.080;21.992;2022-07-21T06:54:55;5.70;;;3.40;;
65871;SDS011;52653;50.080;21.992;2022-07-21T06:57:40;4.90;;;3.00;;
65871;SDS011;52653;50.080;21.992;2022-07-21T07:00:26;4.70;;;2.80;;
65871;SDS011;52653;50.080;21.992;2022-07-21T07:03:18;6.20;;;3.10;;
65871;SDS011;52653;50.080;21.992;2022-07-21T07:06:11;6.40;;;2.90;;
65871;SDS011;52653;50.080;21.992;2022-07-21T07:09:04;7.00;;;3.30;;
65871;SDS011;52653;50.080;21.992;2022-07-21T07:11:56;4.70;;;2.30;;
65871;SDS011;52653;50.080;21.992;2022-07-21T07:14:55;6.40;;;2.60;;
65871;SDS011;52653;50.080;21.992;2022-07-21T07:17:41;5.50;;;2.30;;
65871;SDS011;52653;50.080;21.992;2022-07-21T07:20:33;4.90;;;2.40;;
65871;SDS011;52653;50.080;21.992;2022-07-21T07:23:25;4.70;;;2.40;;
65871;SDS011;52653;50.080;21.992;2022-07-21T07:26:19;5.30;;;2.50;;
65871;SDS011;52653;50.080;21.992;2022-07-21T07:29:02;5.30;;;2.30;;
65871;SDS011;52653;50.080;21.992;2022-07-21T07:31:55;5.20;;;2.70;;
65871;SDS011;52653;50.080;21.992;2022-07-21T07:34:40;4.70;;;2.20;;
65871;SDS011;52653;50.080;21.992;2022-07-21T07:37:26;5.10;;;2.60;;
65871;SDS011;52653;50.080;21.992;2022-07-21T07:40:20;4.40;;;2.40;;
65871;SDS011;52653;50.080;21.992;2022-07-21T07:43:13;4.40;;;2.70;;
65871;SDS011;52653;50.080;21.992;2022-07-21T07:45:59;5.30;;;2.80;;
65871;SDS011;52653;50.080;21.992;2022-07-21T07:48:54;5.60;;;2.70;;
65871;SDS011;52653;50.080;21.992;2022-07-21T07:51:57;4.30;;;2.70;;
65871;SDS011;52653;50.080;21.992;2022-07-21T07:54:46;5.30;;;2.60;;
65871;SDS011;52653;50.080;21.992;2022-07-21T07:57:38;5.30;;;2.70;;
65871;SDS011;52653;50.080;21.992;2022-07-21T08:00:34;4.20;;;2.20;;
65871;SDS011;52653;50.080;21.992;2022-07-21T08:03:44;4.30;;;2.30;;
65871;SDS011;52653;50.080;21.992;2022-07-21T08:06:37;5.60;;;2.90;;
65871;SDS011;52653;50.080;21.992;2022-07-21T08:09:31;6.00;;;3.00;;
65871;SDS011;52653;50.080;21.992;2022-07-21T08:12:24;5.30;;;2.50;;
65871;SDS011;52653;50.080;21.992;2022-07-21T08:15:11;4.70;;;2.50;;
65871;SDS011;52653;50.080;21.992;2022-07-21T08:18:06;6.30;;;3.00;;
65871;SDS011;52653;50.080;21.992;2022-07-21T08:20:52;5.00;;;2.00;;
65871;SDS011;52653;50.080;21.992;2022-07-21T08:23:42;3.90;;;2.20;;
65871;SDS011;52653;50.080;21.992;2022-07-21T08:26:35;5.20;;;2.30;;
65871;SDS011;52653;50.080;21.992;2022-07-21T08:29:28;5.70;;;2.10;;
65871;SDS011;52653;50.080;21.992;2022-07-21T08:32:20;5.50;;;2.60;;
65871;SDS011;52653;50.080;21.992;2022-07-21T08:35:12;6.10;;;2.40;;
65871;SDS011;52653;50.080;21.992;2022-07-21T08:38:05;4.60;;;2.60;;
65871;SDS011;52653;50.080;21.992;2022-07-21T08:41:00;4.70;;;2.40;;
65871;SDS011;52653;50.080;21.992;2022-07-21T08:43:46;6.00;;;2.20;;
65871;SDS011;52653;50.080;21.992;2022-07-21T08:46:31;6.70;;;2.20;;
65871;SDS011;52653;50.080;21.992;2022-07-21T08:49:20;5.30;;;2.30;;
65871;SDS011;52653;50.080;21.992;2022-07-21T08:52:02;7.80;;;2.70;;
65871;SDS011;52653;50.080;21.992;2022-07-21T08:54:56;4.70;;;2.20;;
65871;SDS011;52653;50.080;21.992;2022-07-21T08:57:49;5.50;;;2.30;;
65871;SDS011;52653;50.080;21.992;2022-07-21T09:00:21;5.70;;;2.40;;
65871;SDS011;52653;50.080;21.992;2022-07-21T09:03:09;3.80;;;2.00;;
65871;SDS011;52653;50.080;21.992;2022-07-21T09:06:05;5.30;;;2.20;;
65871;SDS011;52653;50.080;21.992;2022-07-21T09:09:03;4.50;;;1.70;;
65871;SDS011;52653;50.080;21.992;2022-07-21T09:12:02;6.90;;;2.10;;
65871;SDS011;52653;50.080;21.992;2022-07-21T09:18:09;14.50;;;7.70;;
65871;SDS011;52653;50.080;21.992;2022-07-21T09:21:04;5.10;;;2.00;;
65871;SDS011;52653;50.080;21.992;2022-07-21T09:23:40;5.70;;;1.70;;
65871;SDS011;52653;50.080;21.992;2022-07-21T09:26:33;4.50;;;1.70;;
65871;SDS011;52653;50.080;21.992;2022-07-21T09:29:32;3.80;;;1.60;;
65871;SDS011;52653;50.080;21.992;2022-07-21T09:32:20;3.20;;;1.70;;
65871;SDS011;52653;50.080;21.992;2022-07-21T09:35:15;2.40;;;1.40;;
65871;SDS011;52653;50.080;21.992;2022-07-21T09:38:12;4.30;;;1.50;;
65871;SDS011;52653;50.080;21.992;2022-07-21T09:41:06;2.80;;;1.40;;
65871;SDS011;52653;50.080;21.992;2022-07-21T09:44:00;5.50;;;1.90;;
65871;SDS011;52653;50.080;21.992;2022-07-21T09:46:56;4.30;;;1.80;;
65871;SDS011;52653;50.080;21.992;2022-07-21T09:49:47;3.60;;;1.70;;
65871;SDS011;52653;50.080;21.992;2022-07-21T09:53:00;4.70;;;1.80;;
65871;SDS011;52653;50.080;21.992;2022-07-21T09:55:54;5.00;;;1.70;;
65871;SDS011;52653;50.080;21.992;2022-07-21T09:58:29;4.70;;;1.90;;
65871;SDS011;52653;50.080;21.992;2022-07-21T10:01:15;3.30;;;1.80;;
65871;SDS011;52653;50.080;21.992;2022-07-21T10:04:08;4.60;;;1.80;;
65871;SDS011;52653;50.080;21.992;2022-07-21T10:06:56;3.10;;;1.50;;
65871;SDS011;52653;50.080;21.992;2022-07-21T10:09:50;3.80;;;1.50;;
65871;SDS011;52653;50.080;21.992;2022-07-21T10:12:44;4.80;;;1.50;;
65871;SDS011;52653;50.080;21.992;2022-07-21T10:15:28;3.00;;;1.40;;
65871;SDS011;52653;50.080;21.992;2022-07-21T10:18:23;4.50;;;1.40;;
65871;SDS011;52653;50.080;21.992;2022-07-21T10:21:21;2.60;;;1.50;;
65871;SDS011;52653;50.080;21.992;2022-07-21T10:24:19;3.90;;;1.20;;
65871;SDS011;52653;50.080;21.992;2022-07-21T10:27:06;3.60;;;1.40;;
65871;SDS011;52653;50.080;21.992;2022-07-21T10:30:01;3.50;;;1.30;;
65871;SDS011;52653;50.080;21.992;2022-07-21T10:32:55;6.40;;;1.40;;
65871;SDS011;52653;50.080;21.992;2022-07-21T10:35:49;3.00;;;1.50;;
65871;SDS011;52653;50.080;21.992;2022-07-21T10:38:41;3.50;;;1.50;;
65871;SDS011;52653;50.080;21.992;2022-07-21T10:41:37;2.60;;;1.40;;
65871;SDS011;52653;50.080;21.992;2022-07-21T10:47:46;2.80;;;1.30;;
65871;SDS011;52653;50.080;21.992;2022-07-21T10:50:30;3.90;;;1.50;;
65871;SDS011;52653;50.080;21.992;2022-07-21T10:53:24;7.20;;;1.40;;
65871;SDS011;52653;50.080;21.992;2022-07-21T10:56:07;4.00;;;1.50;;
65871;SDS011;52653;50.080;21.992;2022-07-21T10:59:15;3.50;;;1.20;;
65871;SDS011;52653;50.080;21.992;2022-07-21T11:05:18;3.40;;;1.40;;
65871;SDS011;52653;50.080;21.992;2022-07-21T11:08:14;3.40;;;1.50;;
65871;SDS011;52653;50.080;21.992;2022-07-21T11:11:10;2.20;;;1.20;;
65871;SDS011;52653;50.080;21.992;2022-07-21T11:14:07;2.50;;;1.40;;
65871;SDS011;52653;50.080;21.992;2022-07-21T11:17:01;2.90;;;1.40;;
65871;SDS011;52653;50.080;21.992;2022-07-21T11:19:53;1.70;;;1.00;;
65871;SDS011;52653;50.080;21.992;2022-07-21T11:22:53;3.10;;;1.30;;
65871;SDS011;52653;50.080;21.992;2022-07-21T11:25:52;3.40;;;1.30;;
65871;SDS011;52653;50.080;21.992;2022-07-21T11:28:45;4.20;;;1.20;;
65871;SDS011;52653;50.080;21.992;2022-07-21T11:31:53;3.10;;;1.20;;
65871;SDS011;52653;50.080;21.992;2022-07-21T11:34:47;3.70;;;1.20;;
65871;SDS011;52653;50.080;21.992;2022-07-21T11:37:34;3.00;;;1.10;;
65871;SDS011;52653;50.080;21.992;2022-07-21T11:40:28;4.30;;;1.10;;
65871;SDS011;52653;50.080;21.992;2022-07-21T11:43:21;1.70;;;1.10;;
65871;SDS011;52653;50.080;21.992;2022-07-21T11:46:20;4.40;;;1.40;;
65871;SDS011;52653;50.080;21.992;2022-07-21T11:49:03;3.30;;;1.30;;
65871;SDS011;52653;50.080;21.992;2022-07-21T11:51:58;4.00;;;1.60;;
65871;SDS011;52653;50.080;21.992;2022-07-21T11:54:47;1.90;;;1.30;;
65871;SDS011;52653;50.080;21.992;2022-07-21T11:57:32;3.40;;;1.20;;
65871;SDS011;52653;50.080;21.992;2022-07-21T12:00:18;3.90;;;1.50;;
65871;SDS011;52653;50.080;21.992;2022-07-21T12:03:11;2.60;;;1.30;;
65871;SDS011;52653;50.080;21.992;2022-07-21T12:06:04;3.70;;;1.20;;
65871;SDS011;52653;50.080;21.992;2022-07-21T12:11:46;4.00;;;1.40;;
65871;SDS011;52653;50.080;21.992;2022-07-21T12:14:39;1.80;;;1.20;;
65871;SDS011;52653;50.080;21.992;2022-07-21T12:17:35;3.70;;;1.10;;
65871;SDS011;52653;50.080;21.992;2022-07-21T12:20:28;13.00;;;1.40;;
65871;SDS011;52653;50.080;21.992;2022-07-21T12:23:22;1.90;;;1.00;;
65871;SDS011;52653;50.080;21.992;2022-07-21T12:26:21;4.30;;;1.40;;
65871;SDS011;52653;50.080;21.992;2022-07-21T12:29:03;2.10;;;1.10;;
65871;SDS011;52653;50.080;21.992;2022-07-21T12:31:48;2.90;;;1.20;;
65871;SDS011;52653;50.080;21.992;2022-07-21T12:34:33;2.60;;;1.30;;
65871;SDS011;52653;50.080;21.992;2022-07-21T12:37:20;2.60;;;1.10;;
65871;SDS011;52653;50.080;21.992;2022-07-21T12:40:32;3.80;;;1.30;;
65871;SDS011;52653;50.080;21.992;2022-07-21T12:43:34;2.50;;;1.10;;
65871;SDS011;52653;50.080;21.992;2022-07-21T12:46:29;2.80;;;1.00;;
65871;SDS011;52653;50.080;21.992;2022-07-21T12:49:15;1.80;;;1.00;;
65871;SDS011;52653;50.080;21.992;2022-07-21T12:52:08;2.20;;;1.00;;
65871;SDS011;52653;50.080;21.992;2022-07-21T12:54:44;1.90;;;1.10;;
65871;SDS011;52653;50.080;21.992;2022-07-21T12:57:36;3.60;;;1.30;;
65871;SDS011;52653;50.080;21.992;2022-07-21T13:00:29;2.60;;;1.40;;
65871;SDS011;52653;50.080;21.992;2022-07-21T13:03:23;7.40;;;1.30;;
65871;SDS011;52653;50.080;21.992;2022-07-21T13:09:10;2.00;;;1.00;;
65871;SDS011;52653;50.080;21.992;2022-07-21T13:12:08;3.70;;;1.10;;
65871;SDS011;52653;50.080;21.992;2022-07-21T13:15:01;2.40;;;0.90;;
65871;SDS011;52653;50.080;21.992;2022-07-21T13:17:54;2.60;;;1.30;;
65871;SDS011;52653;50.080;21.992;2022-07-21T13:20:47;2.80;;;0.90;;
65871;SDS011;52653;50.080;21.992;2022-07-21T13:23:20;3.50;;;1.20;;
65871;SDS011;52653;50.080;21.992;2022-07-21T13:25:54;2.70;;;1.00;;
65871;SDS011;52653;50.080;21.992;2022-07-21T13:28:53;1.80;;;1.00;;
65871;SDS011;52653;50.080;21.992;2022-07-21T13:31:46;2.30;;;1.10;;
65871;SDS011;52653;50.080;21.992;2022-07-21T13:34:38;3.30;;;1.20;;
65871;SDS011;52653;50.080;21.992;2022-07-21T13:37:50;2.60;;;1.00;;
65871;SDS011;52653;50.080;21.992;2022-07-21T13:40:42;3.50;;;1.00;;
65871;SDS011;52653;50.080;21.992;2022-07-21T13:43:55;3.20;;;1.30;;
65871;SDS011;52653;50.080;21.992;2022-07-21T13:46:49;2.80;;;1.00;;
65871;SDS011;52653;50.080;21.992;2022-07-21T13:49:41;2.50;;;0.90;;
65871;SDS011;52653;50.080;21.992;2022-07-21T13:52:34;2.90;;;1.10;;
65871;SDS011;52653;50.080;21.992;2022-07-21T13:55:26;4.60;;;1.20;;
65871;SDS011;52653;50.080;21.992;2022-07-21T13:58:19;1.80;;;1.10;;
65871;SDS011;52653;50.080;21.992;2022-07-21T14:01:04;3.40;;;1.00;;
65871;SDS011;52653;50.080;21.992;2022-07-21T14:03:37;3.40;;;1.10;;
65871;SDS011;52653;50.080;21.992;2022-07-21T14:06:14;3.60;;;1.00;;
65871;SDS011;52653;50.080;21.992;2022-07-21T14:08:57;5.90;;;1.40;;
65871;SDS011;52653;50.080;21.992;2022-07-21T14:11:40;2.00;;;1.20;;
65871;SDS011;52653;50.080;21.992;2022-07-21T14:14:34;2.70;;;1.10;;
65871;SDS011;52653;50.080;21.992;2022-07-21T14:17:18;2.20;;;1.10;;
65871;SDS011;52653;50.080;21.992;2022-07-21T14:20:11;3.00;;;1.10;;
65871;SDS011;52653;50.080;21.992;2022-07-21T14:22:50;3.90;;;1.10;;
65871;SDS011;52653;50.080;21.992;2022-07-21T14:25:30;2.50;;;1.00;;
65871;SDS011;52653;50.080;21.992;2022-07-21T14:28:14;4.10;;;1.20;;
65871;SDS011;52653;50.080;21.992;2022-07-21T14:31:07;4.70;;;1.30;;
65871;SDS011;52653;50.080;21.992;2022-07-21T14:34:00;1.90;;;1.00;;
65871;SDS011;52653;50.080;21.992;2022-07-21T14:36:52;3.20;;;1.10;;
65871;SDS011;52653;50.080;21.992;2022-07-21T14:39:34;3.40;;;1.10;;
65871;SDS011;52653;50.080;21.992;2022-07-21T14:42:27;5.30;;;1.20;;
65871;SDS011;52653;50.080;21.992;2022-07-21T14:45:19;2.20;;;1.10;;
65871;SDS011;52653;50.080;21.992;2022-07-21T14:48:06;2.00;;;0.90;;
65871;SDS011;52653;50.080;21.992;2022-07-21T14:50:58;3.90;;;1.10;;
65871;SDS011;52653;50.080;21.992;2022-07-21T14:53:50;1.90;;;1.10;;
65871;SDS011;52653;50.080;21.992;2022-07-21T14:56:43;2.90;;;1.10;;
65871;SDS011;52653;50.080;21.992;2022-07-21T14:59:55;3.20;;;1.60;;
65871;SDS011;52653;50.080;21.992;2022-07-21T15:02:27;3.00;;;1.20;;
65871;SDS011;52653;50.080;21.992;2022-07-21T15:05:20;2.60;;;1.20;;
65871;SDS011;52653;50.080;21.992;2022-07-21T15:08:13;2.50;;;1.10;;
65871;SDS011;52653;50.080;21.992;2022-07-21T15:10:58;2.40;;;1.20;;
65871;SDS011;52653;50.080;21.992;2022-07-21T15:13:51;2.00;;;1.20;;
65871;SDS011;52653;50.080;21.992;2022-07-21T15:16:44;2.70;;;1.50;;
65871;SDS011;52653;50.080;21.992;2022-07-21T15:19:36;2.70;;;1.30;;
65871;SDS011;52653;50.080;21.992;2022-07-21T15:22:29;3.80;;;1.20;;
65871;SDS011;52653;50.080;21.992;2022-07-21T15:25:14;2.10;;;1.40;;
65871;SDS011;52653;50.080;21.992;2022-07-21T15:28:15;4.10;;;1.10;;
65871;SDS011;52653;50.080;21.992;2022-07-21T15:31:07;2.00;;;1.10;;
65871;SDS011;52653;50.080;21.992;2022-07-21T15:34:00;3.90;;;1.20;;
65871;SDS011;52653;50.080;21.992;2022-07-21T15:36:53;3.80;;;1.30;;
65871;SDS011;52653;50.080;21.992;2022-07-21T15:39:45;3.20;;;1.00;;
65871;SDS011;52653;50.080;21.992;2022-07-21T15:42:20;3.00;;;1.20;;
65871;SDS011;52653;50.080;21.992;2022-07-21T15:45:13;2.70;;;1.10;;
65871;SDS011;52653;50.080;21.992;2022-07-21T15:47:58;2.40;;;1.20;;
65871;SDS011;52653;50.080;21.992;2022-07-21T15:50:51;3.30;;;1.20;;
65871;SDS011;52653;50.080;21.992;2022-07-21T15:53:38;3.10;;;1.40;;
65871;SDS011;52653;50.080;21.992;2022-07-21T15:56:30;4.00;;;1.20;;
65871;SDS011;52653;50.080;21.992;2022-07-21T15:59:22;3.40;;;1.30;;
65871;SDS011;52653;50.080;21.992;2022-07-21T16:02:24;2.80;;;1.30;;
65871;SDS011;52653;50.080;21.992;2022-07-21T16:05:18;2.40;;;1.30;;
65871;SDS011;52653;50.080;21.992;2022-07-21T16:08:11;2.50;;;1.20;;
65871;SDS011;52653;50.080;21.992;2022-07-21T16:11:03;4.50;;;1.20;;
65871;SDS011;52653;50.080;21.992;2022-07-21T16:13:56;3.90;;;1.20;;
65871;SDS011;52653;50.080;21.992;2022-07-21T16:16:48;3.70;;;1.40;;
65871;SDS011;52653;50.080;21.992;2022-07-21T16:19:30;3.40;;;1.40;;
65871;SDS011;52653;50.080;21.992;2022-07-21T16:22:23;3.60;;;1.20;;
65871;SDS011;52653;50.080;21.992;2022-07-21T16:25:16;4.70;;;1.30;;
65871;SDS011;52653;50.080;21.992;2022-07-21T16:28:09;3.10;;;1.30;;
65871;SDS011;52653;50.080;21.992;2022-07-21T16:31:01;2.40;;;1.30;;
65871;SDS011;52653;50.080;21.992;2022-07-21T16:33:54;2.70;;;1.30;;
65871;SDS011;52653;50.080;21.992;2022-07-21T16:36:47;3.40;;;1.30;;
65871;SDS011;52653;50.080;21.992;2022-07-21T16:39:31;2.30;;;1.20;;
65871;SDS011;52653;50.080;21.992;2022-07-21T16:42:24;3.50;;;1.50;;
65871;SDS011;52653;50.080;21.992;2022-07-21T16:45:16;4.70;;;1.40;;
65871;SDS011;52653;50.080;21.992;2022-07-21T16:48:09;3.10;;;1.40;;
65871;SDS011;52653;50.080;21.992;2022-07-21T16:50:44;4.30;;;1.60;;
65871;SDS011;52653;50.080;21.992;2022-07-21T16:53:36;5.10;;;1.60;;
65871;SDS011;52653;50.080;21.992;2022-07-21T16:56:29;4.10;;;1.30;;
65871;SDS011;52653;50.080;21.992;2022-07-21T16:59:22;5.50;;;1.50;;
65871;SDS011;52653;50.080;21.992;2022-07-21T17:02:03;4.50;;;1.50;;
65871;SDS011;52653;50.080;21.992;2022-07-21T17:04:55;3.50;;;1.90;;
65871;SDS011;52653;50.080;21.992;2022-07-21T17:07:27;4.70;;;1.90;;
65871;SDS011;52653;50.080;21.992;2022-07-21T17:10:10;4.20;;;1.80;;